Time;durP1;ratioP1;P1;durP2;ratioP2;P2;SDS_P1;SDS_P2;PMS_P1;PMS_P2;Temp;Humidity;BMP_temperature;BMP_pressure;BME280_temperature;BME280_humidity;BME280_pressure;Samples;Min_cycle;Max_cycle;Signal;HPM_P1;HPM_P2
2021/05/20 00:00:25;;;;;;;6.43;5.80;;;11.30;99.90;;;;;;5029032;28;20444;-82
2021/05/20 00:02:53;;;;;;;7.93;5.60;;;11.30;99.90;;;;;;5004154;28;22130;-82
2021/05/20 00:05:20;;;;;;;7.00;6.30;;;11.40;99.90;;;;;;5012450;28;20499;-83
2021/05/20 00:07:47;;;;;;;6.50;5.90;;;11.30;99.90;;;;;;5003122;28;20445;-81
2021/05/20 00:10:16;;;;;;;6.67;6.07;;;11.30;99.90;;;;;;5013383;28;20464;-82
2021/05/20 00:12:44;;;;;;;7.47;6.77;;;11.30;99.90;;;;;;5002014;28;20437;-82
2021/05/20 00:15:14;;;;;;;7.33;6.17;;;11.30;99.90;;;;;;5027670;28;20435;-81
2021/05/20 00:17:41;;;;;;;7.83;7.20;;;11.20;99.90;;;;;;5001271;28;20527;-82
2021/05/20 00:20:08;;;;;;;6.47;5.77;;;11.20;99.90;;;;;;5033994;28;20478;-85
2021/05/20 00:22:35;;;;;;;6.70;6.00;;;11.30;99.90;;;;;;5035145;28;20474;-82
2021/05/20 00:25:03;;;;;;;6.37;5.77;;;11.30;99.90;;;;;;5032515;28;20495;-84
2021/05/20 00:27:30;;;;;;;6.07;5.57;;;11.30;99.90;;;;;;5045064;28;20442;-82
2021/05/20 00:29:57;;;;;;;5.80;5.30;;;11.30;99.90;;;;;;5028962;28;20562;-82
2021/05/20 00:32:24;;;;;;;6.73;6.03;;;11.30;99.90;;;;;;5028096;28;20446;-82
2021/05/20 00:34:53;;;;;;;6.20;5.60;;;11.20;99.90;;;;;;5031202;28;20498;-82
2021/05/20 00:37:19;;;;;;;7.20;5.80;;;11.20;99.90;;;;;;5047412;28;20858;-81
2021/05/20 00:39:46;;;;;;;6.03;5.43;;;11.20;99.90;;;;;;5044004;28;20563;-83
2021/05/20 00:42:13;;;;;;;6.50;5.83;;;11.20;99.90;;;;;;5013416;28;20962;-83
2021/05/20 00:44:51;;;;;;;9.23;5.50;;;11.20;99.90;;;;;;5033011;28;20554;-84
2021/05/20 00:47:19;;;;;;;5.90;5.40;;;11.30;99.90;;;;;;5034207;28;20524;-83
2021/05/20 00:49:47;;;;;;;6.03;5.37;;;11.30;99.90;;;;;;5038058;28;20466;-82
2021/05/20 00:52:14;;;;;;;5.07;4.67;;;11.20;99.90;;;;;;5005098;28;20987;-82
2021/05/20 00:54:41;;;;;;;8.40;4.83;;;11.20;99.90;;;;;;5020060;28;20474;-81
2021/05/20 00:57:09;;;;;;;4.70;3.47;;;11.20;99.90;;;;;;5008919;28;20490;-81
2021/05/20 00:59:36;;;;;;;3.77;3.47;;;11.20;99.90;;;;;;5035655;28;20535;-84
2021/05/20 01:02:04;;;;;;;3.93;3.63;;;11.10;99.90;;;;;;5025092;28;20451;-84
2021/05/20 01:04:31;;;;;;;4.03;3.67;;;11.10;99.90;;;;;;5023845;28;20512;-82
2021/05/20 01:06:57;;;;;;;4.30;3.90;;;11.10;99.90;;;;;;5022214;28;20495;-82
2021/05/20 01:09:26;;;;;;;3.47;3.20;;;11.10;99.90;;;;;;5053241;28;20556;-84
2021/05/20 01:11:53;;;;;;;3.70;3.40;;;11.00;99.90;;;;;;5029987;28;20486;-82
2021/05/20 01:14:20;;;;;;;4.03;3.63;;;11.00;99.90;;;;;;5040500;28;20463;-83
2021/05/20 01:16:47;;;;;;;2.60;2.40;;;11.10;99.90;;;;;;5031661;28;20526;-81
2021/05/20 01:19:15;;;;;;;2.43;2.23;;;11.10;99.90;;;;;;5016705;28;20503;-83
2021/05/20 01:21:43;;;;;;;2.90;2.47;;;11.00;99.90;;;;;;5054195;28;20452;-82
2021/05/20 01:24:11;;;;;;;2.10;2.00;;;11.00;99.90;;;;;;5045678;28;20531;-81
2021/05/20 01:26:39;;;;;;;2.60;2.40;;;10.90;99.90;;;;;;5033718;28;20462;-82
2021/05/20 01:29:07;;;;;;;2.73;2.53;;;10.90;99.90;;;;;;5052635;28;20459;-83
2021/05/20 01:31:34;;;;;;;3.57;3.00;;;11.00;99.90;;;;;;5036194;28;20491;-82
2021/05/20 01:34:01;;;;;;;3.30;2.97;;;11.00;99.90;;;;;;5067168;28;20467;-83
2021/05/20 01:36:29;;;;;;;3.00;2.63;;;11.00;99.90;;;;;;5018686;28;20456;-80
2021/05/20 01:39:01;;;;;;;4.80;3.03;;;11.00;99.90;;;;;;5014317;28;21019;-84
2021/05/20 01:41:28;;;;;;;4.10;3.80;;;11.00;99.90;;;;;;5039447;28;20474;-81
2021/05/20 01:43:55;;;;;;;4.43;4.13;;;11.00;99.90;;;;;;5049980;28;20473;-82
2021/05/20 01:46:22;;;;;;;5.60;4.77;;;11.00;99.90;;;;;;5037375;28;20510;-82
2021/05/20 01:48:52;;;;;;;4.60;4.17;;;11.00;99.90;;;;;;5030583;28;20469;-82
2021/05/20 01:51:22;;;;;;;6.37;5.77;;;10.90;99.90;;;;;;5039678;28;20469;-82
2021/05/20 01:53:53;;;;;;;6.50;5.90;;;11.00;99.90;;;;;;5038718;28;20547;-83
2021/05/20 01:56:21;;;;;;;6.00;5.40;;;10.90;99.90;;;;;;5031474;28;20470;-85
2021/05/20 01:58:48;;;;;;;5.97;5.40;;;10.90;99.90;;;;;;5032991;28;20878;-82
2021/05/20 02:01:15;;;;;;;6.43;5.83;;;10.80;99.90;;;;;;5027288;28;20534;-82
2021/05/20 02:03:43;;;;;;;8.17;7.47;;;10.80;99.90;;;;;;5052733;28;20466;-82
2021/05/20 02:06:11;;;;;;;9.53;8.33;;;10.70;99.90;;;;;;5027465;28;20458;-86
2021/05/20 02:08:39;;;;;;;11.70;8.27;;;10.80;99.90;;;;;;5053917;28;20487;-82
2021/05/20 02:11:07;;;;;;;10.13;9.10;;;10.80;99.90;;;;;;5034232;28;21164;-81
2021/05/20 02:13:35;;;;;;;10.10;9.10;;;10.80;99.90;;;;;;5000156;28;20980;-82
2021/05/20 02:16:02;;;;;;;10.15;9.15;;;10.90;99.90;;;;;;5035880;28;20589;-82
2021/05/20 02:18:29;;;;;;;11.63;10.53;;;10.80;99.90;;;;;;5032927;28;20223;-82
2021/05/20 02:20:56;;;;;;;11.03;9.83;;;10.90;99.90;;;;;;5048581;28;20439;-81
2021/05/20 02:23:22;;;;;;;11.07;9.98;;;10.90;99.90;;;;;;5036669;28;20469;-80
2021/05/20 02:25:49;;;;;;;11.77;10.57;;;10.90;99.90;;;;;;5016885;28;20241;-82
2021/05/20 02:28:16;;;;;;;12.80;11.30;;;10.90;99.90;;;;;;5027020;28;20491;-81
2021/05/20 02:30:43;;;;;;;17.13;12.90;;;10.90;99.90;;;;;;5052528;28;20524;-83
2021/05/20 02:33:11;;;;;;;13.77;12.35;;;10.90;99.90;;;;;;5028766;28;20467;-83
2021/05/20 02:35:38;;;;;;;16.23;14.53;;;10.80;99.90;;;;;;5023540;28;20280;-82
2021/05/20 02:38:05;;;;;;;17.37;15.27;;;10.90;99.90;;;;;;5045155;28;20465;-87
2021/05/20 02:40:32;;;;;;;17.03;15.23;;;10.90;99.90;;;;;;5033424;28;20895;-82
2021/05/20 02:43:00;;;;;;;18.93;17.03;;;10.90;99.90;;;;;;5026226;28;20528;-81
2021/05/20 02:45:28;;;;;;;17.48;15.65;;;10.90;99.90;;;;;;5020687;28;20494;-84
2021/05/20 02:47:55;;;;;;;22.60;17.83;;;10.90;99.90;;;;;;5023968;28;20229;-82
2021/05/20 02:50:24;;;;;;;19.27;17.23;;;10.90;99.90;;;;;;5012109;28;20567;-82
2021/05/20 02:52:51;;;;;;;19.93;17.80;;;10.90;99.90;;;;;;5014428;28;20482;-83
2021/05/20 02:55:20;;;;;;;21.73;19.00;;;10.90;99.90;;;;;;5012283;28;20469;-82
2021/05/20 02:57:50;;;;;;;20.53;17.83;;;10.90;99.90;;;;;;5023004;28;20435;-82
2021/05/20 03:00:18;;;;;;;23.08;18.63;;;11.00;99.90;;;;;;5028078;28;20439;-82
2021/05/20 03:02:51;;;;;;;20.30;18.20;;;11.00;99.90;;;;;;5026227;28;20232;-82
2021/05/20 03:05:18;;;;;;;19.95;17.83;;;10.90;99.90;;;;;;5036803;28;20195;-85
2021/05/20 03:07:46;;;;;;;24.73;20.17;;;10.80;99.90;;;;;;5027768;28;20491;-81
2021/05/20 03:10:14;;;;;;;23.90;20.70;;;10.90;99.90;;;;;;5022785;28;20965;-82
2021/05/20 03:12:41;;;;;;;33.77;23.67;;;10.90;99.90;;;;;;5020331;28;20517;-83
2021/05/20 03:15:09;;;;;;;26.58;22.00;;;10.90;99.90;;;;;;5027022;28;20525;-82
2021/05/20 03:17:36;;;;;;;27.10;23.80;;;10.90;99.90;;;;;;5017036;28;20272;-82
2021/05/20 03:20:04;;;;;;;30.63;24.30;;;11.00;99.90;;;;;;5015844;28;20535;-82
2021/05/20 03:22:31;;;;;;;31.37;23.60;;;10.90;99.90;;;;;;5022074;28;20224;-81
2021/05/20 03:24:58;;;;;;;30.67;25.27;;;11.00;99.90;;;;;;5046913;28;20471;-80
2021/05/20 03:27:25;;;;;;;25.83;22.90;;;10.90;99.90;;;;;;5053143;28;20494;-81
2021/05/20 03:29:52;;;;;;;31.33;25.17;;;10.90;99.90;;;;;;5028355;28;20471;-81
2021/05/20 03:32:19;;;;;;;31.33;26.77;;;10.90;99.90;;;;;;5021140;28;20466;-84
2021/05/20 03:34:48;;;;;;;33.87;25.80;;;10.80;99.90;;;;;;5017442;28;20229;-83
2021/05/20 03:37:15;;;;;;;31.38;25.80;;;10.70;99.90;;;;;;5019545;28;20515;-84
2021/05/20 03:39:42;;;;;;;33.15;26.08;;;10.70;99.90;;;;;;5035806;28;20684;-80
2021/05/20 03:42:09;;;;;;;33.70;25.75;;;10.70;99.90;;;;;;5016313;28;20189;-81
2021/05/20 03:44:36;;;;;;;37.42;28.38;;;10.70;99.90;;;;;;5027990;28;20586;-82
2021/05/20 03:47:03;;;;;;;37.80;27.63;;;10.80;99.90;;;;;;5022641;28;20282;-81
2021/05/20 03:49:30;;;;;;;42.03;30.03;;;10.80;99.90;;;;;;5013879;28;20271;-83
2021/05/20 03:51:57;;;;;;;40.60;28.80;;;10.80;99.90;;;;;;5027064;28;20459;-82
2021/05/20 03:54:24;;;;;;;36.57;28.83;;;10.80;99.90;;;;;;5037048;28;20755;-80
2021/05/20 03:56:51;;;;;;;38.80;29.00;;;10.80;99.90;;;;;;5023134;28;20493;-82
2021/05/20 03:59:18;;;;;;;41.75;28.75;;;10.70;99.90;;;;;;5034831;28;20220;-81
2021/05/20 04:01:45;;;;;;;38.15;27.92;;;10.60;99.90;;;;;;5023147;28;20647;-81
2021/05/20 04:04:13;;;;;;;43.37;33.47;;;10.60;99.90;;;;;;5035687;28;20211;-81
2021/05/20 04:06:40;;;;;;;43.65;31.92;;;10.50;99.90;;;;;;5025082;28;20474;-81
2021/05/20 04:09:07;;;;;;;37.13;28.67;;;10.50;99.90;;;;;;5020392;28;20214;-80
2021/05/20 04:11:34;;;;;;;40.53;29.75;;;10.60;99.90;;;;;;5038151;28;20549;-82
2021/05/20 04:14:01;;;;;;;44.72;31.25;;;10.50;99.90;;;;;;5034450;28;20633;-81
2021/05/20 04:16:28;;;;;;;45.15;31.45;;;10.50;99.90;;;;;;5017704;28;20210;-80
2021/05/20 04:18:56;;;;;;;40.03;29.75;;;10.50;99.90;;;;;;4997013;28;20218;-81
2021/05/20 04:21:23;;;;;;;43.90;30.20;;;10.50;99.90;;;;;;5028249;28;20254;-82
2021/05/20 04:23:50;;;;;;;42.78;29.67;;;10.40;99.90;;;;;;5025205;28;20309;-80
2021/05/20 04:26:19;;;;;;;43.35;31.50;;;10.50;99.90;;;;;;5016917;28;20280;-81
2021/05/20 04:28:47;;;;;;;46.63;30.58;;;10.40;99.90;;;;;;5017000;28;20254;-81
2021/05/20 04:31:15;;;;;;;41.97;31.30;;;10.40;99.90;;;;;;5019135;28;20215;-82
2021/05/20 04:33:49;;;;;;;41.00;29.55;;;10.40;99.90;;;;;;5027448;28;20232;-80
2021/05/20 04:36:16;;;;;;;41.03;29.83;;;10.40;99.90;;;;;;5049308;28;20211;-82
2021/05/20 04:38:43;;;;;;;42.70;31.00;;;10.40;99.90;;;;;;5035987;28;20301;-81
2021/05/20 04:41:10;;;;;;;42.17;29.70;;;10.50;99.90;;;;;;5014312;28;20719;-82
2021/05/20 04:43:37;;;;;;;41.63;30.20;;;10.50;99.90;;;;;;5012735;28;20215;-82
2021/05/20 04:46:04;;;;;;;38.63;28.45;;;10.50;99.90;;;;;;5011830;28;20604;-82
2021/05/20 04:48:32;;;;;;;37.10;27.75;;;10.50;99.90;;;;;;5030541;28;20668;-82
2021/05/20 04:51:00;;;;;;;40.53;28.00;;;10.50;99.90;;;;;;5036550;28;20671;-82
2021/05/20 04:53:29;;;;;;;38.88;29.13;;;10.50;99.90;;;;;;5012681;28;20728;-82
2021/05/20 04:55:55;;;;;;;38.90;27.67;;;10.50;99.90;;;;;;5028679;28;20291;-82
2021/05/20 04:58:22;;;;;;;41.72;31.00;;;10.50;99.90;;;;;;5028526;28;20243;-83
2021/05/20 05:00:49;;;;;;;40.75;29.75;;;10.50;99.90;;;;;;5029554;28;20279;-83
2021/05/20 05:03:16;;;;;;;39.05;29.20;;;10.50;99.90;;;;;;5008214;28;20307;-82
2021/05/20 05:05:43;;;;;;;36.85;29.02;;;10.50;99.90;;;;;;5032429;28;20694;-83
2021/05/20 05:08:10;;;;;;;39.72;28.35;;;10.60;99.90;;;;;;5038008;28;20234;-82
2021/05/20 05:10:37;;;;;;;36.83;28.77;;;10.60;99.90;;;;;;5023227;28;20448;-82
2021/05/20 05:13:04;;;;;;;38.28;29.15;;;10.60;99.90;;;;;;5026756;28;20886;-83
2021/05/20 05:15:31;;;;;;;36.83;28.83;;;10.70;99.90;;;;;;5036333;28;20700;-82
2021/05/20 05:17:58;;;;;;;33.92;26.42;;;10.80;99.90;;;;;;5011976;28;20276;-83
2021/05/20 05:20:25;;;;;;;38.27;29.13;;;10.90;99.90;;;;;;5024471;28;20247;-82
2021/05/20 05:22:52;;;;;;;42.78;29.55;;;10.90;99.90;;;;;;5047835;28;20473;-82
2021/05/20 05:25:18;;;;;;;36.73;25.93;;;11.00;99.90;;;;;;5033558;28;20197;-82
2021/05/20 05:27:45;;;;;;;40.60;29.33;;;11.10;99.90;;;;;;5052928;28;20518;-84
2021/05/20 05:30:16;;;;;;;38.20;28.80;;;11.10;99.90;;;;;;5018322;28;20538;-81
2021/05/20 05:32:43;;;;;;;39.47;28.40;;;11.20;99.90;;;;;;5037335;28;20483;-82
2021/05/20 05:35:10;;;;;;;37.03;26.87;;;11.30;99.90;;;;;;5033648;28;20445;-83
2021/05/20 05:37:37;;;;;;;35.00;28.00;;;11.40;99.90;;;;;;5028170;28;20435;-82
2021/05/20 05:40:05;;;;;;;37.23;27.70;;;11.40;99.90;;;;;;5040477;28;20956;-82
2021/05/20 05:42:32;;;;;;;36.93;26.13;;;11.50;99.90;;;;;;5048041;28;20432;-82
2021/05/20 05:44:59;;;;;;;31.87;25.30;;;11.50;99.90;;;;;;5023316;28;20986;-84
2021/05/20 05:47:26;;;;;;;29.90;23.93;;;11.60;99.90;;;;;;5023974;28;20574;-84
2021/05/20 05:49:54;;;;;;;28.73;24.13;;;11.60;99.90;;;;;;5016888;28;20547;-80
2021/05/20 05:52:23;;;;;;;30.20;23.93;;;11.60;99.90;;;;;;5029430;28;21004;-82
2021/05/20 05:54:52;;;;;;;27.80;21.70;;;11.50;99.90;;;;;;5033871;28;20469;-84
2021/05/20 05:57:19;;;;;;;28.60;21.30;;;11.50;99.90;;;;;;5010433;28;20771;-82
2021/05/20 05:59:49;;;;;;;26.07;21.10;;;11.50;99.90;;;;;;5026852;28;20463;-83
2021/05/20 06:02:18;;;;;;;22.50;20.20;;;11.80;99.90;;;;;;5024984;28;20436;-82
2021/05/20 06:04:49;;;;;;;20.20;18.00;;;12.40;99.90;;;;;;5020340;28;20472;-82
2021/05/20 06:07:17;;;;;;;21.43;18.37;;;12.90;99.90;;;;;;5019844;28;20492;-82
2021/05/20 06:09:44;;;;;;;19.93;17.77;;;13.30;99.90;;;;;;5020314;28;20487;-82
2021/05/20 06:12:12;;;;;;;20.73;17.50;;;13.80;99.90;;;;;;5020389;28;20471;-82
2021/05/20 06:14:41;;;;;;;21.70;18.90;;;14.30;99.90;;;;;;5032650;28;20500;-83
2021/05/20 06:17:09;;;;;;;22.77;19.10;;;14.50;99.90;;;;;;5022009;28;20940;-83
2021/05/20 06:19:36;;;;;;;20.77;18.60;;;14.70;99.90;;;;;;5030727;28;20469;-82
2021/05/20 06:22:03;;;;;;;19.70;17.60;;;14.90;99.90;;;;;;5049813;28;20432;-82
2021/05/20 06:24:30;;;;;;;21.20;17.73;;;15.20;99.90;;;;;;5028895;28;20481;-82
2021/05/20 06:26:57;;;;;;;20.10;18.10;;;15.50;99.90;;;;;;5019905;28;20460;-82
2021/05/20 06:29:24;;;;;;;19.07;17.27;;;15.70;99.90;;;;;;5033258;28;20472;-84
2021/05/20 06:31:51;;;;;;;20.63;18.53;;;15.30;99.90;;;;;;5012281;28;20527;-83
2021/05/20 06:34:18;;;;;;;19.93;17.73;;;14.80;99.90;;;;;;5013116;28;20800;-83
2021/05/20 06:36:46;;;;;;;19.87;17.77;;;14.50;99.90;;;;;;5013605;28;20714;-82
2021/05/20 06:39:13;;;;;;;19.83;16.47;;;14.50;99.90;;;;;;5019408;28;20468;-83
2021/05/20 06:41:40;;;;;;;18.57;16.67;;;14.50;99.90;;;;;;5034274;28;20780;-82
2021/05/20 06:44:07;;;;;;;23.20;17.90;;;14.50;99.90;;;;;;5023420;22;20576;-73
2021/05/20 06:46:34;;;;;;;18.90;16.13;;;14.60;99.90;;;;;;4997551;28;20981;-73
2021/05/20 06:49:02;;;;;;;18.60;16.70;;;14.60;99.90;;;;;;5000796;28;20549;-73
2021/05/20 06:51:30;;;;;;;20.07;15.70;;;14.70;99.90;;;;;;4996913;28;20447;-73
2021/05/20 06:53:57;;;;;;;21.47;16.57;;;14.70;99.90;;;;;;4977725;28;20465;-73
2021/05/20 06:56:27;;;;;;;16.70;15.00;;;14.60;99.90;;;;;;5017791;28;20487;-72
2021/05/20 07:01:45;;;;;;;18.60;15.77;;;14.10;99.90;;;;;;4997520;28;20484;-73
2021/05/20 07:04:16;;;;;;;18.97;17.00;;;14.00;99.90;;;;;;4996523;28;20502;-73
2021/05/20 07:06:43;;;;;;;22.27;15.90;;;13.90;99.90;;;;;;5014604;28;20449;-72
2021/05/20 07:09:24;;;;;;;17.27;15.43;;;14.00;99.90;;;;;;5000694;28;20458;-73
2021/05/20 07:11:51;;;;;;;19.47;15.50;;;14.20;99.90;;;;;;5006326;28;20460;-73
2021/05/20 07:14:18;;;;;;;15.70;13.63;;;14.40;99.90;;;;;;5004250;28;20544;-73
2021/05/20 07:16:46;;;;;;;19.27;17.27;;;14.50;99.90;;;;;;5002026;28;20543;-73
2021/05/20 07:19:19;;;;;;;18.20;16.10;;;14.50;99.90;;;;;;4989605;28;20555;-73
2021/05/20 07:21:49;;;;;;;19.20;15.87;;;14.40;99.90;;;;;;4997894;28;20532;-73
2021/05/20 07:24:17;;;;;;;16.30;14.60;;;14.40;99.90;;;;;;5006718;28;20595;-72
2021/05/20 07:26:50;;;;;;;16.17;14.47;;;14.30;99.90;;;;;;5000834;28;20503;-73
2021/05/20 07:29:17;;;;;;;15.13;13.03;;;14.20;99.90;;;;;;5012943;28;20544;-73
2021/05/20 07:31:44;;;;;;;15.00;13.37;;;14.20;99.90;;;;;;5002502;28;20527;-73
2021/05/20 07:34:11;;;;;;;15.13;13.63;;;14.30;99.90;;;;;;5002729;28;20554;-73
2021/05/20 07:36:38;;;;;;;13.93;12.17;;;14.40;99.90;;;;;;4997760;28;20965;-73
2021/05/20 07:39:06;;;;;;;14.30;12.80;;;14.50;99.90;;;;;;5007150;28;20873;-73
2021/05/20 07:41:34;;;;;;;13.37;11.47;;;14.60;99.90;;;;;;5005434;28;20440;-72
2021/05/20 07:44:02;;;;;;;13.63;10.43;;;14.60;99.90;;;;;;4995525;28;20833;-73
2021/05/20 07:46:33;;;;;;;11.37;10.17;;;14.70;99.90;;;;;;5006330;28;20457;-73
2021/05/20 07:49:00;;;;;;;10.30;9.30;;;14.60;99.90;;;;;;4992136;28;20481;-73
2021/05/20 07:51:27;;;;;;;14.30;10.00;;;14.70;99.90;;;;;;5000467;28;20432;-72
2021/05/20 07:53:54;;;;;;;10.93;9.83;;;14.60;99.90;;;;;;4992080;28;20495;-73
2021/05/20 07:56:21;;;;;;;13.70;11.30;;;14.70;99.90;;;;;;5015161;28;20435;-72
2021/05/20 07:58:54;;;;;;;14.37;10.67;;;14.60;99.80;;;;;;5016085;28;20825;-72
2021/05/20 08:01:22;;;;;;;11.60;10.50;;;14.40;99.90;;;;;;4993158;28;20926;-72
2021/05/20 08:04:06;;;;;;;11.63;9.93;;;14.40;99.90;;;;;;5000751;28;20468;-73
2021/05/20 08:06:41;;;;;;;10.77;9.57;;;14.60;99.90;;;;;;5005343;28;20460;-73
2021/05/20 08:09:17;;;;;;;11.90;9.53;;;14.80;99.90;;;;;;4981508;28;20473;-72
2021/05/20 08:11:45;;;;;;;9.57;8.57;;;15.00;99.90;;;;;;4991954;28;20498;-73
2021/05/20 08:14:12;;;;;;;10.93;9.30;;;15.10;99.30;;;;;;4995041;28;20559;-73
2021/05/20 08:16:39;;;;;;;10.50;9.40;;;15.00;97.00;;;;;;5001717;28;20570;-73
2021/05/20 08:19:06;;;;;;;10.50;9.37;;;14.80;98.30;;;;;;5000493;28;20513;-73
2021/05/20 08:21:34;;;;;;;13.60;9.83;;;14.80;98.80;;;;;;5004615;28;20805;-73
2021/05/20 08:24:01;;;;;;;12.33;10.50;;;15.00;99.80;;;;;;4992169;28;20937;-73
2021/05/20 08:26:29;;;;;;;9.53;8.53;;;15.10;98.90;;;;;;4998212;28;20875;-73
2021/05/20 08:28:56;;;;;;;11.40;9.57;;;15.20;97.10;;;;;;4994027;28;20467;-73
2021/05/20 08:31:24;;;;;;;12.37;9.60;;;15.30;98.30;;;;;;5008804;28;20462;-73
2021/05/20 08:33:51;;;;;;;13.43;10.63;;;15.40;98.20;;;;;;4991071;28;20473;-73
2021/05/20 08:36:18;;;;;;;14.33;11.20;;;15.60;97.40;;;;;;4998964;28;20520;-73
2021/05/20 08:38:45;;;;;;;10.20;8.90;;;15.70;97.30;;;;;;4991637;28;20473;-73
2021/05/20 08:41:17;;;;;;;10.03;8.80;;;15.90;94.90;;;;;;4996449;28;20994;-73
2021/05/20 08:43:46;;;;;;;8.60;6.10;;;16.00;92.40;;;;;;5008461;28;21056;-73
2021/05/20 08:46:13;;;;;;;10.50;9.40;;;16.20;91.40;;;;;;4992099;28;20437;-73
2021/05/20 08:48:40;;;;;;;9.13;8.07;;;16.00;92.20;;;;;;4996112;28;20532;-73
2021/05/20 08:51:06;;;;;;;11.50;9.63;;;16.00;93.30;;;;;;4996184;28;20492;-73
2021/05/20 08:53:33;;;;;;;10.53;8.27;;;16.10;93.10;;;;;;5010821;28;20480;-73
2021/05/20 08:56:00;;;;;;;10.17;8.40;;;16.20;92.40;;;;;;5012027;28;20484;-73
2021/05/20 08:58:28;;;;;;;9.93;8.93;;;16.30;93.50;;;;;;5003437;28;20873;-73
2021/05/20 09:00:56;;;;;;;8.27;7.37;;;16.30;93.90;;;;;;5017368;28;20837;-73
2021/05/20 09:03:25;;;;;;;9.33;8.43;;;16.30;92.30;;;;;;4999563;28;20501;-73
2021/05/20 09:05:57;;;;;;;7.10;6.50;;;16.40;93.10;;;;;;4997828;28;20442;-73
2021/05/20 09:08:34;;;;;;;7.57;6.80;;;16.50;90.90;;;;;;5007245;28;20473;-73
2021/05/20 09:11:02;;;;;;;8.77;7.30;;;16.40;85.40;;;;;;4996754;28;20544;-73
2021/05/20 09:13:34;;;;;;;7.60;6.80;;;16.20;87.10;;;;;;5022504;28;20995;-73
2021/05/20 09:16:12;;;;;;;7.60;6.80;;;16.20;87.80;;;;;;5011429;28;20446;-73
2021/05/20 09:18:41;;;;;;;9.13;7.30;;;16.30;85.10;;;;;;5008458;28;20552;-73
2021/05/20 09:21:09;;;;;;;10.07;7.70;;;16.40;88.70;;;;;;4999101;28;20469;-73
2021/05/20 09:23:47;;;;;;;7.93;7.17;;;16.60;84.40;;;;;;5007754;28;21010;-73
2021/05/20 09:26:14;;;;;;;5.77;4.80;;;16.70;89.90;;;;;;4994529;28;20476;-73
2021/05/20 09:28:47;;;;;;;5.83;5.30;;;16.90;83.60;;;;;;4994747;28;20461;-73
2021/05/20 09:31:16;;;;;;;6.97;6.27;;;17.20;83.10;;;;;;5003731;28;20436;-73
2021/05/20 09:33:56;;;;;;;6.93;5.60;;;17.20;81.80;;;;;;5002236;28;20605;-73
2021/05/20 09:36:24;;;;;;;5.93;5.33;;;17.30;83.10;;;;;;5011751;28;20452;-73
2021/05/20 09:39:14;;;;;;;5.43;4.93;;;17.50;79.20;;;;;;5008183;28;20484;-72
2021/05/20 09:41:41;;;;;;;7.30;6.53;;;17.40;73.00;;;;;;5023051;28;20520;-73
2021/05/20 09:44:29;;;;;;;8.00;6.90;;;17.40;77.00;;;;;;5012590;28;20461;-73
2021/05/20 09:46:57;;;;;;;7.47;6.20;;;17.50;83.00;;;;;;5027674;28;20475;-72
2021/05/20 09:49:26;;;;;;;8.80;6.90;;;17.70;78.20;;;;;;5005857;28;20994;-73
2021/05/20 09:52:22;;;;;;;6.87;6.10;;;17.80;79.50;;;;;;5000550;28;20458;-73
2021/05/20 09:54:50;;;;;;;5.60;5.10;;;17.70;79.80;;;;;;4993894;28;20530;-73
2021/05/20 09:57:33;;;;;;;4.90;4.40;;;17.60;79.10;;;;;;4994406;28;20442;-73
2021/05/20 10:00:02;;;;;;;5.60;3.80;;;17.60;74.40;;;;;;4994355;28;20481;-73
2021/05/20 10:02:31;;;;;;;4.17;3.77;;;17.50;78.00;;;;;;4997091;28;20433;-73
2021/05/20 10:05:17;;;;;;;5.47;3.77;;;17.60;74.30;;;;;;5007726;28;20659;-73
2021/05/20 10:07:45;;;;;;;5.97;5.07;;;17.70;76.90;;;;;;4986547;28;20480;-73
2021/05/20 10:10:30;;;;;;;5.53;4.73;;;18.00;72.10;;;;;;4998377;28;20483;-73
2021/05/20 10:12:59;;;;;;;6.60;3.70;;;17.90;72.50;;;;;;5011901;28;20460;-73
2021/05/20 10:15:26;;;;;;;4.80;3.63;;;18.00;69.00;;;;;;5008417;28;20442;-73
2021/05/20 10:17:56;;;;;;;4.97;3.60;;;18.00;69.50;;;;;;4993597;28;20446;-73
2021/05/20 10:20:24;;;;;;;3.70;3.33;;;17.90;70.70;;;;;;4993720;28;20510;-73
2021/05/20 10:22:50;;;;;;;3.37;3.07;;;18.00;66.30;;;;;;5001558;28;20439;-73
2021/05/20 10:25:18;;;;;;;5.00;3.43;;;18.20;67.30;;;;;;4992350;28;20562;-73
2021/05/20 10:27:46;;;;;;;3.03;2.73;;;18.10;69.10;;;;;;4988987;28;20463;-73
2021/05/20 10:30:18;;;;;;;4.37;3.13;;;18.20;66.60;;;;;;5001991;28;20441;-73
2021/05/20 10:32:45;;;;;;;2.83;2.50;;;18.20;65.50;;;;;;4996544;28;20530;-73
2021/05/20 10:35:15;;;;;;;4.47;2.40;;;18.20;67.30;;;;;;4994892;28;20525;-73
2021/05/20 10:37:43;;;;;;;2.70;2.40;;;18.30;66.10;;;;;;5010041;28;20450;-73
2021/05/20 10:40:33;;;;;;;2.93;1.83;;;18.20;62.10;;;;;;4996210;28;20443;-73
2021/05/20 10:43:09;;;;;;;3.53;1.80;;;18.00;62.00;;;;;;5011668;28;20433;-72
2021/05/20 10:45:38;;;;;;;1.63;1.53;;;17.80;63.70;;;;;;5012200;28;20528;-73
2021/05/20 10:48:10;;;;;;;2.50;2.30;;;17.80;66.70;;;;;;5003849;28;20468;-73
2021/05/20 10:50:57;;;;;;;5.37;2.30;;;17.60;66.50;;;;;;5005596;28;20531;-73
2021/05/20 10:53:49;;;;;;;3.63;1.87;;;17.50;65.10;;;;;;5001531;28;20478;-72
2021/05/20 10:56:16;;;;;;;1.77;1.50;;;17.60;61.50;;;;;;4994221;28;20449;-72
2021/05/20 10:58:46;;;;;;;19.37;2.73;;;17.60;63.00;;;;;;4991709;28;20466;-72
2021/05/20 11:01:25;;;;;;;3.13;1.90;;;17.70;66.80;;;;;;5008530;28;20959;-72
2021/05/20 11:03:55;;;;;;;6.13;1.80;;;17.80;70.00;;;;;;4992310;28;20532;-72
2021/05/20 11:06:24;;;;;;;3.40;2.07;;;17.80;61.80;;;;;;4993698;28;20426;-73
2021/05/20 11:08:54;;;;;;;3.20;1.53;;;17.90;67.90;;;;;;4992992;28;20520;-73
2021/05/20 11:11:30;;;;;;;2.20;1.43;;;18.10;64.80;;;;;;4991140;28;20443;-72
2021/05/20 11:14:02;;;;;;;1.43;1.33;;;18.30;62.80;;;;;;4990516;28;20477;-72
2021/05/20 11:16:36;;;;;;;1.63;1.20;;;18.30;62.70;;;;;;4992397;28;20450;-72
2021/05/20 11:21:55;;;;;;;1.40;1.10;;;18.10;65.10;;;;;;4974116;28;20832;-72
2021/05/20 11:24:27;;;;;;;3.10;1.53;;;18.20;65.10;;;;;;4975242;28;20473;-73
2021/05/20 11:27:05;;;;;;;2.63;1.47;;;18.20;63.50;;;;;;4993220;28;20533;-73
2021/05/20 11:29:37;;;;;;;1.50;1.40;;;18.20;62.40;;;;;;5007584;28;20696;-72
2021/05/20 11:32:29;;;;;;;4.63;1.70;;;18.30;60.30;;;;;;4986729;28;20446;-72
2021/05/20 11:37:49;;;;;;;2.40;1.40;;;17.90;60.70;;;;;;4972771;28;20435;-72
2021/05/20 11:40:26;;;;;;;1.77;1.40;;;18.10;62.10;;;;;;4983966;28;20953;-72
2021/05/20 11:42:53;;;;;;;2.07;1.10;;;18.20;63.80;;;;;;4991269;28;20633;-72
2021/05/20 11:45:28;;;;;;;1.60;1.30;;;18.40;60.90;;;;;;4991668;28;20805;-72
2021/05/20 11:47:58;;;;;;;1.90;1.10;;;18.70;57.20;;;;;;4980976;28;20710;-73
2021/05/20 11:50:26;;;;;;;1.97;1.13;;;18.70;56.70;;;;;;4973743;28;20456;-72
2021/05/20 11:52:54;;;;;;;2.13;1.20;;;18.70;58.30;;;;;;4972943;28;20420;-73
2021/05/20 11:55:23;;;;;;;3.70;1.10;;;18.70;58.10;;;;;;4983983;28;20442;-72
2021/05/20 11:58:01;;;;;;;2.30;1.47;;;18.60;59.90;;;;;;4991971;28;20492;-73
2021/05/20 12:00:28;;;;;;;2.33;1.30;;;18.40;57.90;;;;;;4991661;28;20426;-72
2021/05/20 12:02:56;;;;;;;2.93;1.30;;;18.30;59.60;;;;;;4991487;28;20434;-72
2021/05/20 12:05:25;;;;;;;1.17;1.07;;;18.20;63.80;;;;;;4991124;28;20831;-72
2021/05/20 12:08:19;;;;;;;3.07;1.57;;;18.30;58.80;;;;;;4991525;28;20980;-72
2021/05/20 12:10:52;;;;;;;1.90;1.80;;;18.50;57.20;;;;;;5006286;28;20441;-72
2021/05/20 12:13:19;;;;;;;2.60;2.13;;;18.50;64.20;;;;;;5011754;28;20499;-72
2021/05/20 12:15:48;;;;;;;3.37;1.77;;;18.30;62.20;;;;;;5011670;28;20424;-72
2021/05/20 12:18:15;;;;;;;2.47;2.27;;;18.00;64.80;;;;;;5009114;28;20544;-72
2021/05/20 12:20:47;;;;;;;2.50;2.30;;;17.90;65.90;;;;;;5012228;28;20810;-72
2021/05/20 12:23:16;;;;;;;3.83;2.57;;;17.70;68.90;;;;;;5012092;28;20477;-72
2021/05/20 12:25:43;;;;;;;2.43;2.03;;;17.60;68.20;;;;;;4999694;28;20943;-72
2021/05/20 12:28:12;;;;;;;3.90;2.20;;;17.60;64.90;;;;;;4998049;28;20453;-72
2021/05/20 12:30:41;;;;;;;3.50;2.30;;;17.80;64.50;;;;;;4998946;28;20428;-72
2021/05/20 12:33:09;;;;;;;2.90;1.73;;;17.80;66.80;;;;;;5004097;28;20970;-72
2021/05/20 12:35:42;;;;;;;6.13;1.97;;;17.90;62.80;;;;;;5015067;28;20432;-72
2021/05/20 12:38:17;;;;;;;2.80;2.00;;;17.90;69.00;;;;;;4992949;28;20465;-72
2021/05/20 12:40:50;;;;;;;4.00;1.93;;;17.90;62.30;;;;;;5006392;28;20471;-72
2021/05/20 12:43:31;;;;;;;4.73;2.20;;;17.90;61.80;;;;;;4978733;28;20462;-72
2021/05/20 12:46:12;;;;;;;1.93;1.83;;;17.90;66.70;;;;;;4982148;28;20450;-72
2021/05/20 12:48:43;;;;;;;2.20;2.00;;;17.80;67.30;;;;;;5006685;28;20499;-72
2021/05/20 12:51:13;;;;;;;2.37;2.17;;;17.70;66.30;;;;;;4998064;28;20447;-72
2021/05/20 12:53:52;;;;;;;2.30;2.07;;;17.60;66.90;;;;;;4996836;28;20559;-72
2021/05/20 12:56:24;;;;;;;2.50;1.60;;;17.60;70.00;;;;;;5015840;28;20436;-72